Orbital elements of METEOR 2-5 DEB
| Launched | 30 October 1979 |
| Flight ended | – |
| Launch site | Plesetsk Missile and Space Complex, Russia |
| Owner | Commonwealth of Independent States (former USSR) |
| NORAD ID | 39605 |
| Date fetched |
Epoch osculation |
Inc. [°] |
Ecc. | RA asc node [hr] |
Arg Peri. [°] |
Mean anom [°] |
Mean motion [rev/day] |
Abs. mag |
| Date fetched |
Epoch osculation |
Inc. [°] |
Ecc. | RA asc node [hr] |
Arg Peri. [°] |
Mean anom [°] |
Mean motion [rev/day] |
Abs. mag |
| 2026 May 05 17:57 | 2026 May 02 01:53:25 | 81.1737 | 0.00227 | 10.2754 | 108.7405 | 281.8942 | 14.52255 | – |
| 2026 May 04 17:57 | 2026 Apr 30 01:56:18 | 81.1755 | 0.00227 | 10.4153 | 114.4318 | 281.8942 | 14.52255 | – |
| 2026 May 03 17:57 | 2026 Apr 30 01:56:18 | 81.1755 | 0.00227 | 10.4153 | 114.4318 | 281.8942 | 14.52255 | – |
| 2026 May 02 17:57 | 2026 Apr 30 01:56:18 | 81.1755 | 0.00227 | 10.4153 | 114.4318 | 281.8942 | 14.52255 | – |
| 2026 May 01 17:56 | 2026 Apr 30 01:56:18 | 81.1755 | 0.00227 | 10.4153 | 114.4318 | 281.8942 | 14.52255 | – |
| 2026 Apr 30 17:56 | 2026 Apr 30 01:56:18 | 81.1755 | 0.00227 | 10.4153 | 114.4318 | 281.8942 | 14.52255 | – |
| 2026 Apr 29 17:57 | 2026 Apr 21 21:49:22 | 81.1746 | 0.00227 | 10.9874 | 137.9153 | 281.8942 | 14.52255 | – |
| 2026 Apr 28 17:56 | 2026 Apr 21 21:49:22 | 81.1746 | 0.00227 | 10.9874 | 137.9153 | 281.8942 | 14.52255 | – |
| 2026 Apr 27 17:58 | 2026 Apr 21 21:49:22 | 81.1746 | 0.00227 | 10.9874 | 137.9153 | 281.8942 | 14.52255 | – |
| 2026 Apr 26 17:58 | 2026 Apr 21 21:49:22 | 81.1746 | 0.00227 | 10.9874 | 137.9153 | 281.8942 | 14.52255 | – |
| 2026 Apr 25 17:58 | 2026 Apr 21 21:49:22 | 81.1746 | 0.00227 | 10.9874 | 137.9153 | 281.8942 | 14.52255 | – |
| 2026 Apr 24 17:59 | 2026 Apr 21 21:49:22 | 81.1746 | 0.00227 | 10.9874 | 137.9153 | 281.8942 | 14.52255 | – |
| 2026 Apr 23 17:57 | 2026 Apr 18 03:50:57 | 81.1773 | 0.00225 | 11.2500 | 148.6733 | 281.8942 | 14.52255 | – |
| 2026 Apr 22 17:57 | 2026 Apr 18 03:50:57 | 81.1773 | 0.00225 | 11.2500 | 148.6733 | 281.8942 | 14.52255 | – |
| 2026 Apr 21 17:57 | 2026 Apr 18 03:50:57 | 81.1773 | 0.00225 | 11.2500 | 148.6733 | 281.8942 | 14.52255 | – |
| 2026 Apr 20 17:57 | 2026 Apr 18 03:50:57 | 81.1773 | 0.00225 | 11.2500 | 148.6733 | 281.8942 | 14.52255 | – |
| 2026 Apr 19 17:58 | 2026 Apr 18 03:50:57 | 81.1773 | 0.00225 | 11.2500 | 148.6733 | 281.8942 | 14.52255 | – |
| 2026 Apr 18 17:56 | 2026 Apr 09 04:50:27 | 81.1772 | 0.00221 | 11.8770 | 174.8138 | 281.8942 | 14.52255 | – |
| 2026 Apr 16 17:57 | 2026 Apr 09 04:50:27 | 81.1772 | 0.00221 | 11.8770 | 174.8138 | 281.8942 | 14.52255 | – |
| 2026 Apr 14 17:57 | 2026 Apr 09 04:50:27 | 81.1772 | 0.00221 | 11.8770 | 174.8138 | 281.8942 | 14.52255 | – |
| 2026 Apr 13 17:57 | 2026 Apr 09 04:50:27 | 81.1772 | 0.00221 | 11.8770 | 174.8138 | 281.8942 | 14.52255 | – |
| 2026 Apr 12 17:57 | 2026 Apr 06 12:16:25 | 81.1772 | 0.00220 | 12.0652 | 182.5443 | 281.8942 | 14.52255 | – |
| 2026 Apr 11 17:57 | 2026 Apr 06 12:16:25 | 81.1772 | 0.00220 | 12.0652 | 182.5443 | 281.8942 | 14.52255 | – |
| 2026 Apr 10 17:58 | 2026 Apr 06 12:16:25 | 81.1772 | 0.00220 | 12.0652 | 182.5443 | 281.8942 | 14.52255 | – |
| 2026 Apr 09 18:01 | 2026 Apr 06 12:16:25 | 81.1772 | 0.00220 | 12.0652 | 182.5443 | 281.8942 | 14.52255 | – |
| 2026 Apr 08 17:57 | 2026 Apr 06 12:16:25 | 81.1772 | 0.00220 | 12.0652 | 182.5443 | 281.8942 | 14.52255 | – |